sensor_id;sensor_type;location;lat;lon;timestamp;noise_LAeq;noise_LA_min;noise_LA_max;noise_LA01;noise_LA95
66399;Laerm;54877;51.504;3.894;2024-03-25T00:00:34;36.15;34.92;39.63;;
66399;Laerm;54877;51.504;3.894;2024-03-25T00:02:59;36.12;34.77;37.42;;
66399;Laerm;54877;51.504;3.894;2024-03-25T00:05:24;36.14;34.83;37.56;;
66399;Laerm;54877;51.504;3.894;2024-03-25T00:07:51;36.15;34.71;37.55;;
66399;Laerm;54877;51.504;3.894;2024-03-25T00:10:17;36.13;34.33;40.14;;
66399;Laerm;54877;51.504;3.894;2024-03-25T00:12:43;36.18;34.80;43.36;;
66399;Laerm;54877;51.504;3.894;2024-03-25T00:15:08;36.25;34.40;40.08;;
66399;Laerm;54877;51.504;3.894;2024-03-25T00:17:34;36.73;34.73;49.13;;
66399;Laerm;54877;51.504;3.894;2024-03-25T00:19:59;36.12;34.79;38.09;;
66399;Laerm;54877;51.504;3.894;2024-03-25T00:22:25;36.90;34.21;51.02;;
66399;Laerm;54877;51.504;3.894;2024-03-25T00:24:51;36.21;34.91;48.87;;
66399;Laerm;54877;51.504;3.894;2024-03-25T00:27:17;36.13;34.56;37.54;;
66399;Laerm;54877;51.504;3.894;2024-03-25T00:29:43;36.15;34.94;37.46;;
66399;Laerm;54877;51.504;3.894;2024-03-25T00:32:09;36.19;34.81;40.00;;
66399;Laerm;54877;51.504;3.894;2024-03-25T00:34:35;36.16;34.69;37.49;;
66399;Laerm;54877;51.504;3.894;2024-03-25T00:37:02;36.27;34.56;37.95;;
66399;Laerm;54877;51.504;3.894;2024-03-25T00:39:27;36.22;34.89;45.12;;
66399;Laerm;54877;51.504;3.894;2024-03-25T00:41:54;36.23;34.71;37.90;;
66399;Laerm;54877;51.504;3.894;2024-03-25T00:44:19;36.21;34.88;37.52;;
66399;Laerm;54877;51.504;3.894;2024-03-25T00:46:45;36.23;34.95;37.57;;
66399;Laerm;54877;51.504;3.894;2024-03-25T00:49:10;36.24;34.93;37.53;;
66399;Laerm;54877;51.504;3.894;2024-03-25T00:51:36;36.24;34.84;37.70;;
66399;Laerm;54877;51.504;3.894;2024-03-25T00:54:02;36.32;34.87;44.46;;
66399;Laerm;54877;51.504;3.894;2024-03-25T00:56:28;36.55;34.96;45.55;;
66399;Laerm;54877;51.504;3.894;2024-03-25T00:58:54;36.56;34.84;50.65;;
66399;Laerm;54877;51.504;3.894;2024-03-25T01:01:20;36.49;34.84;46.83;;
66399;Laerm;54877;51.504;3.894;2024-03-25T01:03:46;36.30;35.07;37.60;;
66399;Laerm;54877;51.504;3.894;2024-03-25T01:06:11;36.32;34.89;37.58;;
66399;Laerm;54877;51.504;3.894;2024-03-25T01:08:36;36.35;35.00;42.61;;
66399;Laerm;54877;51.504;3.894;2024-03-25T01:11:02;36.37;34.87;37.85;;
66399;Laerm;54877;51.504;3.894;2024-03-25T01:13:30;36.41;34.93;38.31;;
66399;Laerm;54877;51.504;3.894;2024-03-25T01:15:55;36.75;34.98;45.95;;
66399;Laerm;54877;51.504;3.894;2024-03-25T01:18:21;36.56;35.19;48.96;;
66399;Laerm;54877;51.504;3.894;2024-03-25T01:20:46;36.43;35.01;37.72;;
66399;Laerm;54877;51.504;3.894;2024-03-25T01:23:11;36.46;34.71;37.95;;
66399;Laerm;54877;51.504;3.894;2024-03-25T01:25:37;36.56;35.17;45.13;;
66399;Laerm;54877;51.504;3.894;2024-03-25T01:28:02;36.67;35.21;43.33;;
66399;Laerm;54877;51.504;3.894;2024-03-25T01:30:28;36.46;35.09;39.34;;
66399;Laerm;54877;51.504;3.894;2024-03-25T01:32:54;36.45;34.88;38.15;;
66399;Laerm;54877;51.504;3.894;2024-03-25T01:35:20;36.48;35.17;37.88;;
66399;Laerm;54877;51.504;3.894;2024-03-25T01:37:45;36.75;34.88;60.32;;
66399;Laerm;54877;51.504;3.894;2024-03-25T01:40:11;37.24;35.12;54.53;;
66399;Laerm;54877;51.504;3.894;2024-03-25T01:42:37;36.46;35.12;37.73;;
66399;Laerm;54877;51.504;3.894;2024-03-25T01:45:03;36.41;34.89;37.71;;
66399;Laerm;54877;51.504;3.894;2024-03-25T01:47:30;36.41;34.93;37.83;;
66399;Laerm;54877;51.504;3.894;2024-03-25T01:49:57;36.40;34.94;37.81;;
66399;Laerm;54877;51.504;3.894;2024-03-25T01:52:23;36.43;35.07;37.67;;
66399;Laerm;54877;51.504;3.894;2024-03-25T01:54:51;36.45;34.94;37.72;;
66399;Laerm;54877;51.504;3.894;2024-03-25T01:57:16;36.42;34.97;37.74;;
66399;Laerm;54877;51.504;3.894;2024-03-25T01:59:42;36.64;35.21;43.47;;
66399;Laerm;54877;51.504;3.894;2024-03-25T02:02:08;36.62;35.05;46.28;;
66399;Laerm;54877;51.504;3.894;2024-03-25T02:04:36;36.63;34.91;53.73;;
66399;Laerm;54877;51.504;3.894;2024-03-25T02:07:02;36.42;35.09;37.75;;
66399;Laerm;54877;51.504;3.894;2024-03-25T02:09:28;36.46;34.69;37.77;;
66399;Laerm;54877;51.504;3.894;2024-03-25T02:11:54;36.44;35.14;37.65;;
66399;Laerm;54877;51.504;3.894;2024-03-25T02:14:20;36.49;34.91;37.98;;
66399;Laerm;54877;51.504;3.894;2024-03-25T02:16:45;36.48;35.17;37.72;;
66399;Laerm;54877;51.504;3.894;2024-03-25T02:19:12;36.48;34.98;37.69;;
66399;Laerm;54877;51.504;3.894;2024-03-25T02:21:40;36.48;35.20;37.80;;
66399;Laerm;54877;51.504;3.894;2024-03-25T02:24:09;36.47;35.13;37.70;;
66399;Laerm;54877;51.504;3.894;2024-03-25T02:26:35;36.62;35.16;51.50;;
66399;Laerm;54877;51.504;3.894;2024-03-25T02:29:00;37.22;35.21;49.18;;
66399;Laerm;54877;51.504;3.894;2024-03-25T02:31:26;36.79;35.04;43.83;;
66399;Laerm;54877;51.504;3.894;2024-03-25T02:33:51;36.71;35.09;44.75;;
66399;Laerm;54877;51.504;3.894;2024-03-25T02:36:16;37.44;35.29;55.01;;
66399;Laerm;54877;51.504;3.894;2024-03-25T02:38:42;39.98;35.13;71.82;;
66399;Laerm;54877;51.504;3.894;2024-03-25T02:41:07;37.23;35.23;52.92;;
66399;Laerm;54877;51.504;3.894;2024-03-25T02:43:33;37.41;35.12;49.20;;
66399;Laerm;54877;51.504;3.894;2024-03-25T02:45:59;37.10;34.79;43.16;;
66399;Laerm;54877;51.504;3.894;2024-03-25T02:48:24;36.52;35.21;43.46;;
66399;Laerm;54877;51.504;3.894;2024-03-25T02:50:49;38.07;35.18;67.07;;
66399;Laerm;54877;51.504;3.894;2024-03-25T02:53:15;36.84;35.06;56.18;;
66399;Laerm;54877;51.504;3.894;2024-03-25T02:55:41;36.63;34.90;49.95;;
66399;Laerm;54877;51.504;3.894;2024-03-25T02:58:06;37.51;34.92;61.27;;
66399;Laerm;54877;51.504;3.894;2024-03-25T03:00:32;36.85;34.93;56.85;;
66399;Laerm;54877;51.504;3.894;2024-03-25T03:02:57;40.32;35.21;70.35;;
66399;Laerm;54877;51.504;3.894;2024-03-25T03:05:22;37.20;34.97;59.49;;
66399;Laerm;54877;51.504;3.894;2024-03-25T03:07:48;36.82;35.20;55.80;;
66399;Laerm;54877;51.504;3.894;2024-03-25T03:10:13;36.51;34.93;39.55;;
66399;Laerm;54877;51.504;3.894;2024-03-25T03:12:38;37.27;34.76;64.46;;
66399;Laerm;54877;51.504;3.894;2024-03-25T03:15:04;37.14;35.06;59.31;;
66399;Laerm;54877;51.504;3.894;2024-03-25T03:17:29;37.15;34.86;62.95;;
66399;Laerm;54877;51.504;3.894;2024-03-25T03:19:55;38.34;35.13;67.33;;
66399;Laerm;54877;51.504;3.894;2024-03-25T03:22:20;36.65;35.10;54.55;;
66399;Laerm;54877;51.504;3.894;2024-03-25T03:24:45;36.56;35.24;44.27;;
66399;Laerm;54877;51.504;3.894;2024-03-25T03:27:11;43.09;35.21;77.67;;
66399;Laerm;54877;51.504;3.894;2024-03-25T03:29:36;36.51;35.00;38.93;;
66399;Laerm;54877;51.504;3.894;2024-03-25T03:32:01;36.62;35.06;50.05;;
66399;Laerm;54877;51.504;3.894;2024-03-25T03:34:27;36.49;35.12;39.43;;
66399;Laerm;54877;51.504;3.894;2024-03-25T03:36:52;36.43;35.01;37.67;;
66399;Laerm;54877;51.504;3.894;2024-03-25T03:39:17;36.41;34.83;37.57;;
66399;Laerm;54877;51.504;3.894;2024-03-25T03:41:43;36.52;35.01;47.74;;
66399;Laerm;54877;51.504;3.894;2024-03-25T03:44:08;36.41;34.63;37.65;;
66399;Laerm;54877;51.504;3.894;2024-03-25T03:46:34;36.79;35.10;43.75;;
66399;Laerm;54877;51.504;3.894;2024-03-25T03:49:00;36.46;34.72;37.84;;
66399;Laerm;54877;51.504;3.894;2024-03-25T03:51:25;37.34;35.19;65.60;;
66399;Laerm;54877;51.504;3.894;2024-03-25T03:53:51;37.08;34.78;52.46;;
66399;Laerm;54877;51.504;3.894;2024-03-25T03:56:16;37.17;35.01;53.77;;
66399;Laerm;54877;51.504;3.894;2024-03-25T03:58:41;36.42;34.73;37.76;;
66399;Laerm;54877;51.504;3.894;2024-03-25T04:01:16;36.46;35.00;38.51;;
66399;Laerm;54877;51.504;3.894;2024-03-25T04:03:42;36.44;35.27;37.63;;
66399;Laerm;54877;51.504;3.894;2024-03-25T04:06:11;36.42;34.83;37.75;;
66399;Laerm;54877;51.504;3.894;2024-03-25T04:08:40;42.45;35.08;60.23;;
66399;Laerm;54877;51.504;3.894;2024-03-25T04:11:06;36.45;35.28;38.18;;
66399;Laerm;54877;51.504;3.894;2024-03-25T04:13:33;36.49;35.13;37.88;;
66399;Laerm;54877;51.504;3.894;2024-03-25T04:16:05;36.54;35.07;38.00;;
66399;Laerm;54877;51.504;3.894;2024-03-25T04:18:32;36.49;35.22;38.03;;
66399;Laerm;54877;51.504;3.894;2024-03-25T04:20:59;36.49;35.01;37.91;;
66399;Laerm;54877;51.504;3.894;2024-03-25T04:23:25;36.49;35.07;37.78;;
66399;Laerm;54877;51.504;3.894;2024-03-25T04:25:50;36.54;35.09;37.91;;
66399;Laerm;54877;51.504;3.894;2024-03-25T04:28:16;36.56;35.19;40.30;;
66399;Laerm;54877;51.504;3.894;2024-03-25T04:30:41;37.29;35.02;47.01;;
66399;Laerm;54877;51.504;3.894;2024-03-25T04:33:07;38.23;35.41;52.19;;
66399;Laerm;54877;51.504;3.894;2024-03-25T04:35:33;36.89;35.35;49.63;;
66399;Laerm;54877;51.504;3.894;2024-03-25T04:37:58;37.78;34.90;65.69;;
66399;Laerm;54877;51.504;3.894;2024-03-25T04:40:24;44.57;35.42;77.75;;
66399;Laerm;54877;51.504;3.894;2024-03-25T04:42:49;43.42;35.47;77.86;;
66399;Laerm;54877;51.504;3.894;2024-03-25T04:45:15;38.71;35.41;53.30;;
66399;Laerm;54877;51.504;3.894;2024-03-25T04:47:40;40.77;35.48;56.15;;
66399;Laerm;54877;51.504;3.894;2024-03-25T04:50:06;41.24;35.53;74.01;;
66399;Laerm;54877;51.504;3.894;2024-03-25T04:52:32;40.43;35.54;70.15;;
66399;Laerm;54877;51.504;3.894;2024-03-25T04:54:58;39.33;35.56;52.35;;
66399;Laerm;54877;51.504;3.894;2024-03-25T04:57:23;41.43;35.66;56.32;;
66399;Laerm;54877;51.504;3.894;2024-03-25T04:59:49;37.69;35.63;56.63;;
66399;Laerm;54877;51.504;3.894;2024-03-25T05:02:14;37.70;35.47;48.21;;
66399;Laerm;54877;51.504;3.894;2024-03-25T05:04:40;38.20;35.42;47.42;;
66399;Laerm;54877;51.504;3.894;2024-03-25T05:07:05;37.80;35.62;46.86;;
66399;Laerm;54877;51.504;3.894;2024-03-25T05:09:31;37.92;35.49;46.21;;
66399;Laerm;54877;51.504;3.894;2024-03-25T05:11:56;44.88;35.59;63.29;;
66399;Laerm;54877;51.504;3.894;2024-03-25T05:14:23;37.55;35.45;46.26;;
66399;Laerm;54877;51.504;3.894;2024-03-25T05:16:49;45.84;35.65;64.17;;
66399;Laerm;54877;51.504;3.894;2024-03-25T05:19:15;39.92;35.54;71.93;;
66399;Laerm;54877;51.504;3.894;2024-03-25T05:21:40;37.73;35.63;62.84;;
66399;Laerm;54877;51.504;3.894;2024-03-25T05:24:06;37.03;35.56;41.83;;
66399;Laerm;54877;51.504;3.894;2024-03-25T05:26:31;41.53;35.62;59.16;;
66399;Laerm;54877;51.504;3.894;2024-03-25T05:28:57;37.32;35.61;45.28;;
66399;Laerm;54877;51.504;3.894;2024-03-25T05:31:22;37.44;35.56;45.13;;
66399;Laerm;54877;51.504;3.894;2024-03-25T05:33:49;39.49;35.47;51.28;;
66399;Laerm;54877;51.504;3.894;2024-03-25T05:36:14;41.80;35.27;51.47;;
66399;Laerm;54877;51.504;3.894;2024-03-25T05:38:41;43.19;35.53;60.94;;
66399;Laerm;54877;51.504;3.894;2024-03-25T05:41:10;37.58;35.26;46.66;;
66399;Laerm;54877;51.504;3.894;2024-03-25T05:43:35;38.72;35.74;50.99;;
66399;Laerm;54877;51.504;3.894;2024-03-25T05:46:01;39.18;35.73;51.10;;
66399;Laerm;54877;51.504;3.894;2024-03-25T05:48:27;44.71;36.06;67.81;;
66399;Laerm;54877;51.504;3.894;2024-03-25T05:51:01;37.41;35.58;40.49;;
66399;Laerm;54877;51.504;3.894;2024-03-25T05:53:28;37.87;35.86;49.89;;
66399;Laerm;54877;51.504;3.894;2024-03-25T05:55:53;39.30;35.83;53.56;;
66399;Laerm;54877;51.504;3.894;2024-03-25T05:58:19;37.61;35.90;43.29;;
66399;Laerm;54877;51.504;3.894;2024-03-25T06:00:47;39.61;35.92;52.40;;
66399;Laerm;54877;51.504;3.894;2024-03-25T06:03:16;37.51;35.71;44.73;;
66399;Laerm;54877;51.504;3.894;2024-03-25T06:05:42;38.74;35.88;53.31;;
66399;Laerm;54877;51.504;3.894;2024-03-25T06:08:08;39.17;35.94;65.23;;
66399;Laerm;54877;51.504;3.894;2024-03-25T06:10:43;46.74;36.07;63.07;;
66399;Laerm;54877;51.504;3.894;2024-03-25T06:13:08;45.86;36.21;63.43;;
66399;Laerm;54877;51.504;3.894;2024-03-25T06:15:34;49.30;36.29;66.17;;
66399;Laerm;54877;51.504;3.894;2024-03-25T06:17:59;45.72;36.38;63.48;;
66399;Laerm;54877;51.504;3.894;2024-03-25T06:20:24;45.36;36.10;67.43;;
66399;Laerm;54877;51.504;3.894;2024-03-25T06:22:50;48.50;36.18;68.82;;
66399;Laerm;54877;51.504;3.894;2024-03-25T06:25:16;37.96;35.85;47.32;;
66399;Laerm;54877;51.504;3.894;2024-03-25T06:27:42;37.58;35.81;45.46;;
66399;Laerm;54877;51.504;3.894;2024-03-25T06:30:08;41.45;35.88;57.89;;
66399;Laerm;54877;51.504;3.894;2024-03-25T06:32:52;42.26;35.78;56.73;;
66399;Laerm;54877;51.504;3.894;2024-03-25T06:35:37;46.06;35.76;67.17;;
66399;Laerm;54877;51.504;3.894;2024-03-25T06:38:02;39.30;35.58;58.17;;
66399;Laerm;54877;51.504;3.894;2024-03-25T06:40:27;43.36;35.66;60.23;;
66399;Laerm;54877;51.504;3.894;2024-03-25T06:42:53;44.89;35.67;66.15;;
66399;Laerm;54877;51.504;3.894;2024-03-25T06:45:18;48.95;35.70;67.39;;
66399;Laerm;54877;51.504;3.894;2024-03-25T06:47:43;46.21;35.84;63.70;;
66399;Laerm;54877;51.504;3.894;2024-03-25T06:50:09;38.53;35.36;58.00;;
66399;Laerm;54877;51.504;3.894;2024-03-25T06:52:35;44.39;35.62;63.96;;
66399;Laerm;54877;51.504;3.894;2024-03-25T06:55:00;42.95;35.81;58.78;;
66399;Laerm;54877;51.504;3.894;2024-03-25T06:57:25;45.75;35.60;64.02;;
66399;Laerm;54877;51.504;3.894;2024-03-25T06:59:51;46.58;35.75;62.59;;
66399;Laerm;54877;51.504;3.894;2024-03-25T07:02:16;38.01;35.63;45.40;;
66399;Laerm;54877;51.504;3.894;2024-03-25T07:04:42;48.33;35.62;64.11;;
66399;Laerm;54877;51.504;3.894;2024-03-25T07:07:07;38.55;35.55;53.91;;
66399;Laerm;54877;51.504;3.894;2024-03-25T07:09:33;39.15;35.72;53.75;;
66399;Laerm;54877;51.504;3.894;2024-03-25T07:11:59;45.48;35.65;63.56;;
66399;Laerm;54877;51.504;3.894;2024-03-25T07:14:24;45.67;35.47;64.82;;
66399;Laerm;54877;51.504;3.894;2024-03-25T07:16:50;47.10;35.67;64.33;;
66399;Laerm;54877;51.504;3.894;2024-03-25T07:19:15;50.10;35.85;69.73;;
66399;Laerm;54877;51.504;3.894;2024-03-25T07:21:41;47.87;36.03;65.60;;
66399;Laerm;54877;51.504;3.894;2024-03-25T07:24:06;47.95;35.59;63.51;;
66399;Laerm;54877;51.504;3.894;2024-03-25T07:26:31;40.97;35.91;61.81;;
66399;Laerm;54877;51.504;3.894;2024-03-25T07:28:57;46.35;35.94;63.99;;
66399;Laerm;54877;51.504;3.894;2024-03-25T07:31:23;45.65;35.51;63.02;;
66399;Laerm;54877;51.504;3.894;2024-03-25T07:33:48;49.15;36.00;67.25;;
66399;Laerm;54877;51.504;3.894;2024-03-25T07:36:13;47.32;35.90;64.15;;
66399;Laerm;54877;51.504;3.894;2024-03-25T07:38:39;45.86;35.93;62.06;;
66399;Laerm;54877;51.504;3.894;2024-03-25T07:41:04;43.44;35.57;65.13;;
66399;Laerm;54877;51.504;3.894;2024-03-25T07:43:30;50.23;35.85;71.58;;
66399;Laerm;54877;51.504;3.894;2024-03-25T07:45:55;46.40;36.15;63.17;;
66399;Laerm;54877;51.504;3.894;2024-03-25T07:48:21;42.33;35.64;58.89;;
66399;Laerm;54877;51.504;3.894;2024-03-25T07:50:46;48.06;35.43;66.93;;
66399;Laerm;54877;51.504;3.894;2024-03-25T07:53:11;39.20;35.74;50.93;;
66399;Laerm;54877;51.504;3.894;2024-03-25T07:55:37;46.29;35.87;64.80;;
66399;Laerm;54877;51.504;3.894;2024-03-25T07:58:03;45.20;35.67;62.62;;
66399;Laerm;54877;51.504;3.894;2024-03-25T08:00:28;45.18;35.81;63.06;;
66399;Laerm;54877;51.504;3.894;2024-03-25T08:02:54;42.11;35.77;58.57;;
66399;Laerm;54877;51.504;3.894;2024-03-25T08:05:19;46.66;35.63;65.53;;
66399;Laerm;54877;51.504;3.894;2024-03-25T08:07:45;39.90;35.68;53.42;;
66399;Laerm;54877;51.504;3.894;2024-03-25T08:10:10;44.62;35.63;60.42;;
66399;Laerm;54877;51.504;3.894;2024-03-25T08:12:36;48.80;35.79;67.15;;
66399;Laerm;54877;51.504;3.894;2024-03-25T08:15:01;39.79;36.04;56.06;;
66399;Laerm;54877;51.504;3.894;2024-03-25T08:17:26;39.23;35.73;53.80;;
66399;Laerm;54877;51.504;3.894;2024-03-25T08:19:52;46.12;35.55;59.68;;
66399;Laerm;54877;51.504;3.894;2024-03-25T08:22:17;57.46;36.60;76.56;;
66399;Laerm;54877;51.504;3.894;2024-03-25T08:24:43;45.32;35.78;63.39;;
66399;Laerm;54877;51.504;3.894;2024-03-25T08:27:08;39.21;35.57;55.81;;
66399;Laerm;54877;51.504;3.894;2024-03-25T08:29:34;46.88;35.75;66.55;;
66399;Laerm;54877;51.504;3.894;2024-03-25T08:31:59;48.62;35.48;67.29;;
66399;Laerm;54877;51.504;3.894;2024-03-25T08:34:24;37.51;35.81;44.43;;
66399;Laerm;54877;51.504;3.894;2024-03-25T08:36:50;41.37;35.95;61.33;;
66399;Laerm;54877;51.504;3.894;2024-03-25T08:39:15;43.14;35.74;57.95;;
66399;Laerm;54877;51.504;3.894;2024-03-25T08:41:40;37.74;35.38;51.35;;
66399;Laerm;54877;51.504;3.894;2024-03-25T08:44:06;37.65;35.27;50.78;;
66399;Laerm;54877;51.504;3.894;2024-03-25T08:46:31;38.96;35.40;65.37;;
66399;Laerm;54877;51.504;3.894;2024-03-25T08:48:57;37.56;35.52;46.77;;
66399;Laerm;54877;51.504;3.894;2024-03-25T08:51:23;48.73;35.64;69.26;;
66399;Laerm;54877;51.504;3.894;2024-03-25T08:53:48;40.40;35.26;58.23;;
66399;Laerm;54877;51.504;3.894;2024-03-25T08:56:15;37.81;35.43;47.05;;
66399;Laerm;54877;51.504;3.894;2024-03-25T08:58:40;37.34;35.24;53.04;;
66399;Laerm;54877;51.504;3.894;2024-03-25T09:01:06;37.11;35.17;43.16;;
66399;Laerm;54877;51.504;3.894;2024-03-25T09:03:31;37.50;35.38;48.78;;
66399;Laerm;54877;51.504;3.894;2024-03-25T09:05:58;41.43;35.54;53.34;;
66399;Laerm;54877;51.504;3.894;2024-03-25T09:08:23;48.58;35.49;66.69;;
66399;Laerm;54877;51.504;3.894;2024-03-25T09:10:49;45.88;34.96;63.58;;
66399;Laerm;54877;51.504;3.894;2024-03-25T09:13:32;51.16;35.58;70.88;;
66399;Laerm;54877;51.504;3.894;2024-03-25T09:15:58;53.68;35.57;74.60;;
66399;Laerm;54877;51.504;3.894;2024-03-25T09:18:23;38.63;35.17;51.52;;
66399;Laerm;54877;51.504;3.894;2024-03-25T09:20:49;42.22;35.05;65.11;;
66399;Laerm;54877;51.504;3.894;2024-03-25T09:23:14;51.41;35.26;68.80;;
66399;Laerm;54877;51.504;3.894;2024-03-25T09:25:40;38.62;34.70;55.33;;
66399;Laerm;54877;51.504;3.894;2024-03-25T09:28:05;54.82;34.67;70.68;;
66399;Laerm;54877;51.504;3.894;2024-03-25T09:30:31;50.13;34.74;69.63;;
66399;Laerm;54877;51.504;3.894;2024-03-25T09:32:57;36.65;34.56;44.43;;
66399;Laerm;54877;51.504;3.894;2024-03-25T09:35:22;36.90;34.65;50.83;;
66399;Laerm;54877;51.504;3.894;2024-03-25T09:37:48;37.87;34.76;50.30;;
66399;Laerm;54877;51.504;3.894;2024-03-25T09:40:13;40.50;34.01;58.86;;
66399;Laerm;54877;51.504;3.894;2024-03-25T09:42:48;47.14;34.57;67.30;;
66399;Laerm;54877;51.504;3.894;2024-03-25T09:45:17;36.97;34.20;45.72;;
66399;Laerm;54877;51.504;3.894;2024-03-25T09:47:46;38.39;34.58;50.83;;
66399;Laerm;54877;51.504;3.894;2024-03-25T09:50:13;42.94;34.87;55.06;;
66399;Laerm;54877;51.504;3.894;2024-03-25T09:52:41;46.76;34.46;64.38;;
66399;Laerm;54877;51.504;3.894;2024-03-25T09:55:07;38.83;33.96;59.28;;
66399;Laerm;54877;51.504;3.894;2024-03-25T09:57:33;49.04;34.97;67.59;;
66399;Laerm;54877;51.504;3.894;2024-03-25T09:59:59;38.91;34.15;54.32;;
66399;Laerm;54877;51.504;3.894;2024-03-25T10:02:25;38.67;34.47;59.63;;
66399;Laerm;54877;51.504;3.894;2024-03-25T10:04:52;37.40;34.22;47.78;;
66399;Laerm;54877;51.504;3.894;2024-03-25T10:07:24;44.67;34.09;61.46;;
66399;Laerm;54877;51.504;3.894;2024-03-25T10:09:50;44.53;34.14;62.97;;
66399;Laerm;54877;51.504;3.894;2024-03-25T10:12:16;39.42;34.28;63.66;;
66399;Laerm;54877;51.504;3.894;2024-03-25T10:14:42;40.74;34.30;55.05;;
66399;Laerm;54877;51.504;3.894;2024-03-25T10:17:08;51.41;34.82;71.59;;
66399;Laerm;54877;51.504;3.894;2024-03-25T10:19:34;38.60;34.36;54.49;;
66399;Laerm;54877;51.504;3.894;2024-03-25T10:22:07;37.40;34.26;51.49;;
66399;Laerm;54877;51.504;3.894;2024-03-25T10:24:43;37.75;33.96;49.87;;
66399;Laerm;54877;51.504;3.894;2024-03-25T10:27:19;38.13;34.47;56.65;;
66399;Laerm;54877;51.504;3.894;2024-03-25T10:29:51;37.68;34.62;49.93;;
66399;Laerm;54877;51.504;3.894;2024-03-25T10:32:16;36.53;34.21;49.74;;
66399;Laerm;54877;51.504;3.894;2024-03-25T10:34:42;53.50;35.01;72.20;;
66399;Laerm;54877;51.504;3.894;2024-03-25T10:37:11;46.75;35.06;65.18;;
66399;Laerm;54877;51.504;3.894;2024-03-25T10:39:48;42.03;34.89;56.72;;
66399;Laerm;54877;51.504;3.894;2024-03-25T10:42:18;39.19;34.96;57.70;;
66399;Laerm;54877;51.504;3.894;2024-03-25T10:44:44;51.75;34.62;67.75;;
66399;Laerm;54877;51.504;3.894;2024-03-25T10:47:16;41.40;34.88;62.52;;
66399;Laerm;54877;51.504;3.894;2024-03-25T10:49:58;40.96;34.89;59.54;;
66399;Laerm;54877;51.504;3.894;2024-03-25T10:52:26;53.71;34.62;68.76;;
66399;Laerm;54877;51.504;3.894;2024-03-25T10:54:52;37.67;34.71;52.30;;
66399;Laerm;54877;51.504;3.894;2024-03-25T10:57:19;38.53;34.83;56.94;;
66399;Laerm;54877;51.504;3.894;2024-03-25T10:59:46;41.26;35.10;58.48;;
66399;Laerm;54877;51.504;3.894;2024-03-25T11:02:12;39.67;35.10;50.76;;
66399;Laerm;54877;51.504;3.894;2024-03-25T11:04:38;50.38;34.91;68.33;;
66399;Laerm;54877;51.504;3.894;2024-03-25T11:07:13;48.62;35.70;63.31;;
66399;Laerm;54877;51.504;3.894;2024-03-25T11:09:39;53.48;35.36;71.03;;
66399;Laerm;54877;51.504;3.894;2024-03-25T11:12:05;43.41;34.89;64.10;;
66399;Laerm;54877;51.504;3.894;2024-03-25T11:14:31;46.50;34.73;69.33;;
66399;Laerm;54877;51.504;3.894;2024-03-25T11:17:01;40.52;35.05;65.44;;
66399;Laerm;54877;51.504;3.894;2024-03-25T11:19:28;38.34;35.04;56.41;;
66399;Laerm;54877;51.504;3.894;2024-03-25T11:21:54;50.48;34.91;73.47;;
66399;Laerm;54877;51.504;3.894;2024-03-25T11:24:27;46.12;34.96;64.21;;
66399;Laerm;54877;51.504;3.894;2024-03-25T11:26:53;40.74;35.03;62.16;;
66399;Laerm;54877;51.504;3.894;2024-03-25T11:29:19;55.43;34.83;74.59;;
66399;Laerm;54877;51.504;3.894;2024-03-25T11:31:45;39.40;35.36;58.40;;
66399;Laerm;54877;51.504;3.894;2024-03-25T11:34:10;47.23;34.38;65.50;;
66399;Laerm;54877;51.504;3.894;2024-03-25T11:36:35;55.77;34.74;75.31;;
66399;Laerm;54877;51.504;3.894;2024-03-25T11:39:04;50.18;35.21;65.29;;
66399;Laerm;54877;51.504;3.894;2024-03-25T11:41:34;39.96;34.58;61.78;;
66399;Laerm;54877;51.504;3.894;2024-03-25T11:44:01;51.26;34.99;71.19;;
66399;Laerm;54877;51.504;3.894;2024-03-25T11:46:27;51.58;35.54;71.36;;
66399;Laerm;54877;51.504;3.894;2024-03-25T11:48:53;45.15;35.26;75.21;;
66399;Laerm;54877;51.504;3.894;2024-03-25T11:51:19;45.94;35.23;61.32;;
66399;Laerm;54877;51.504;3.894;2024-03-25T11:53:45;41.60;34.59;67.66;;
66399;Laerm;54877;51.504;3.894;2024-03-25T11:56:13;50.06;34.47;68.98;;
66399;Laerm;54877;51.504;3.894;2024-03-25T11:58:39;41.93;34.81;58.86;;
66399;Laerm;54877;51.504;3.894;2024-03-25T12:01:04;42.94;35.00;60.39;;
66399;Laerm;54877;51.504;3.894;2024-03-25T12:03:30;40.97;34.55;57.78;;
66399;Laerm;54877;51.504;3.894;2024-03-25T12:05:56;39.25;34.96;59.11;;
66399;Laerm;54877;51.504;3.894;2024-03-25T12:08:23;44.25;34.82;63.49;;
66399;Laerm;54877;51.504;3.894;2024-03-25T12:10:51;37.35;34.61;50.22;;
66399;Laerm;54877;51.504;3.894;2024-03-25T12:13:35;55.01;34.75;76.91;;
66399;Laerm;54877;51.504;3.894;2024-03-25T12:16:02;46.29;35.60;67.20;;
66399;Laerm;54877;51.504;3.894;2024-03-25T12:18:29;56.83;34.82;75.43;;
66399;Laerm;54877;51.504;3.894;2024-03-25T12:20:58;51.96;35.16;70.32;;
66399;Laerm;54877;51.504;3.894;2024-03-25T12:23:23;51.24;35.00;69.15;;
66399;Laerm;54877;51.504;3.894;2024-03-25T12:25:51;39.83;34.62;57.80;;
66399;Laerm;54877;51.504;3.894;2024-03-25T12:28:17;39.93;35.03;56.07;;
66399;Laerm;54877;51.504;3.894;2024-03-25T12:30:50;49.23;35.27;68.67;;
66399;Laerm;54877;51.504;3.894;2024-03-25T12:33:15;46.40;35.24;67.26;;
66399;Laerm;54877;51.504;3.894;2024-03-25T12:35:41;52.65;35.57;68.73;;
66399;Laerm;54877;51.504;3.894;2024-03-25T12:38:07;50.65;35.43;75.38;;
66399;Laerm;54877;51.504;3.894;2024-03-25T12:40:32;37.21;34.78;46.43;;
66399;Laerm;54877;51.504;3.894;2024-03-25T12:42:58;42.16;35.58;57.79;;
66399;Laerm;54877;51.504;3.894;2024-03-25T12:45:23;43.29;35.80;58.15;;
66399;Laerm;54877;51.504;3.894;2024-03-25T12:47:51;40.98;35.09;58.22;;
66399;Laerm;54877;51.504;3.894;2024-03-25T12:50:16;50.38;35.24;64.99;;
66399;Laerm;54877;51.504;3.894;2024-03-25T12:52:42;52.11;34.99;72.40;;
66399;Laerm;54877;51.504;3.894;2024-03-25T12:55:07;38.34;35.30;51.49;;
66399;Laerm;54877;51.504;3.894;2024-03-25T12:57:33;52.43;35.67;68.21;;
66399;Laerm;54877;51.504;3.894;2024-03-25T12:59:58;52.39;36.14;70.79;;
66399;Laerm;54877;51.504;3.894;2024-03-25T13:02:24;51.56;35.83;74.47;;
66399;Laerm;54877;51.504;3.894;2024-03-25T13:04:49;47.10;36.45;66.23;;
66399;Laerm;54877;51.504;3.894;2024-03-25T13:07:15;57.59;36.80;73.71;;
66399;Laerm;54877;51.504;3.894;2024-03-25T13:09:40;54.04;36.75;69.34;;
66399;Laerm;54877;51.504;3.894;2024-03-25T13:12:05;41.46;35.56;62.07;;
66399;Laerm;54877;51.504;3.894;2024-03-25T13:14:31;40.73;35.37;62.33;;
66399;Laerm;54877;51.504;3.894;2024-03-25T13:16:56;38.88;35.43;47.84;;
66399;Laerm;54877;51.504;3.894;2024-03-25T13:19:21;39.53;35.59;52.97;;
66399;Laerm;54877;51.504;3.894;2024-03-25T13:21:47;39.99;35.41;61.36;;
66399;Laerm;54877;51.504;3.894;2024-03-25T13:24:13;46.93;35.41;72.99;;
66399;Laerm;54877;51.504;3.894;2024-03-25T13:26:38;40.63;35.20;63.94;;
66399;Laerm;54877;51.504;3.894;2024-03-25T13:29:04;50.88;35.30;71.47;;
66399;Laerm;54877;51.504;3.894;2024-03-25T13:31:30;37.73;34.92;50.86;;
66399;Laerm;54877;51.504;3.894;2024-03-25T13:33:55;37.48;35.14;46.44;;
66399;Laerm;54877;51.504;3.894;2024-03-25T13:36:20;53.59;35.84;71.57;;
66399;Laerm;54877;51.504;3.894;2024-03-25T13:38:46;43.74;35.50;73.43;;